createdAt,value
2018-11-10T00:00:48.096Z,7.85
2018-11-10T00:03:17.123Z,7.88
2018-11-10T00:05:46.107Z,7.89
2018-11-10T00:08:15.103Z,7.89
2018-11-10T00:10:43.997Z,7.94
2018-11-10T00:13:12.994Z,7.97
2018-11-10T00:15:42.022Z,8.01
2018-11-10T00:18:11.016Z,8.02
2018-11-10T00:20:40.183Z,8.05
2018-11-10T00:23:09.112Z,8.06
2018-11-10T00:25:38.293Z,8.12
2018-11-10T00:28:07.211Z,8.13
2018-11-10T00:30:36.369Z,8.18
2018-11-10T00:33:05.375Z,8.18
2018-11-10T00:35:34.296Z,8.17
2018-11-10T00:38:03.318Z,8.24
2018-11-10T00:40:32.230Z,8.21
2018-11-10T00:43:01.227Z,8.23
2018-11-10T00:45:30.292Z,8.19
2018-11-10T00:47:59.311Z,8.25
2018-11-10T00:50:28.452Z,8.26
2018-11-10T00:52:57.360Z,8.21
2018-11-10T00:55:26.313Z,8.29
2018-11-10T00:57:55.236Z,8.27
2018-11-10T01:00:24.205Z,8.26
2018-11-10T01:02:53.137Z,8.25
2018-11-10T01:05:22.071Z,8.30
2018-11-10T01:07:51.008Z,8.28
2018-11-10T01:10:19.995Z,8.30
2018-11-10T01:12:48.953Z,8.27
2018-11-10T01:15:17.876Z,8.26
2018-11-10T01:17:46.953Z,8.23
2018-11-10T01:20:15.887Z,8.26
2018-11-10T01:22:44.841Z,8.31
2018-11-10T01:25:13.767Z,8.38
2018-11-10T01:27:42.806Z,8.38
2018-11-10T01:30:13.636Z,8.38
2018-11-10T01:32:43.883Z,8.38
2018-11-10T01:35:13.769Z,8.34
2018-11-10T01:37:42.992Z,8.37
2018-11-10T01:40:13.286Z,8.34
2018-11-10T01:42:42.895Z,8.32
2018-11-10T01:45:14.254Z,8.38
2018-11-10T01:47:43.881Z,8.37
2018-11-10T01:50:13.154Z,8.46
2018-11-10T01:52:42.457Z,8.44
2018-11-10T01:55:11.930Z,8.40
2018-11-10T01:57:41.636Z,8.42
2018-11-10T02:00:13.301Z,8.43
2018-11-10T02:02:43.037Z,8.39
2018-11-10T02:05:12.097Z,8.37
2018-11-10T02:07:41.013Z,8.38
2018-11-10T02:10:10.847Z,8.40
2018-11-10T02:12:39.977Z,8.36
2018-11-10T02:15:12.988Z,8.38
2018-11-10T02:17:41.907Z,8.45
2018-11-10T02:20:12.065Z,8.45
2018-11-10T02:22:41.169Z,8.49
2018-11-10T02:25:11.343Z,8.51
2018-11-10T02:27:40.503Z,8.54
2018-11-10T02:30:10.777Z,8.63
2018-11-10T02:32:39.779Z,8.56
2018-11-10T02:35:09.285Z,8.57
2018-11-10T02:37:39.199Z,8.61
2018-11-10T02:40:11.361Z,8.61
2018-11-10T02:42:40.307Z,8.58
2018-11-10T02:45:10.278Z,8.55
2018-11-10T02:47:39.228Z,8.54
2018-11-10T02:50:08.157Z,8.55
2018-11-10T02:52:37.127Z,8.58
2018-11-10T02:55:06.849Z,8.63
2018-11-10T02:57:35.858Z,8.61
2018-11-10T03:00:05.156Z,8.60
2018-11-10T03:02:34.045Z,8.61
2018-11-10T03:05:02.939Z,8.67
2018-11-10T03:07:31.928Z,8.66
2018-11-10T03:10:00.834Z,8.64
2018-11-10T03:12:29.800Z,8.61
2018-11-10T03:15:03.311Z,8.64
2018-11-10T03:17:32.314Z,8.60
2018-11-10T03:20:01.275Z,8.59
2018-11-10T03:22:30.187Z,8.61
2018-11-10T03:24:59.100Z,8.60
2018-11-10T03:27:28.388Z,8.58
2018-11-10T03:29:57.583Z,8.57
2018-11-10T03:32:26.500Z,8.57
2018-11-10T03:34:55.486Z,8.56
2018-11-10T03:37:24.454Z,8.55
2018-11-10T03:39:53.381Z,8.57
2018-11-10T03:42:22.313Z,8.54
2018-11-10T03:44:51.283Z,8.52
2018-11-10T03:47:20.301Z,8.53
2018-11-10T03:49:49.247Z,8.48
2018-11-10T03:52:18.194Z,8.57
2018-11-10T03:54:47.264Z,8.57
2018-11-10T03:57:16.253Z,8.59
2018-11-10T03:59:45.215Z,8.53
2018-11-10T04:02:14.130Z,8.51
2018-11-10T04:04:43.079Z,8.51
2018-11-10T04:07:12.178Z,8.51
2018-11-10T04:09:41.139Z,8.60
2018-11-10T04:12:10.111Z,8.61
2018-11-10T04:14:39.116Z,8.55
2018-11-10T04:17:08.485Z,8.63
2018-11-10T04:19:37.669Z,8.59
2018-11-10T04:22:06.877Z,8.60
2018-11-10T04:24:35.901Z,8.64
2018-11-10T04:27:04.916Z,8.67
2018-11-10T04:29:34.191Z,8.63
2018-11-10T04:32:03.183Z,8.62
2018-11-10T04:34:32.102Z,8.64
2018-11-10T04:37:00.996Z,8.64
2018-11-10T04:39:29.982Z,8.67
2018-11-10T04:41:58.880Z,8.66
2018-11-10T04:44:27.860Z,8.67
2018-11-10T04:46:56.793Z,8.64
2018-11-10T04:49:25.744Z,8.62
2018-11-10T04:51:54.655Z,8.62
2018-11-10T04:54:23.584Z,8.69
2018-11-10T04:56:52.474Z,8.64
2018-11-10T04:59:21.401Z,8.67
2018-11-10T05:01:50.556Z,8.57
2018-11-10T05:04:19.504Z,8.63
2018-11-10T05:06:48.507Z,8.66
2018-11-10T05:09:19.608Z,8.65
2018-11-10T05:11:48.820Z,8.68
2018-11-10T05:14:18.424Z,8.71
2018-11-10T05:16:47.420Z,8.70
2018-11-10T05:19:16.376Z,8.77
2018-11-10T05:21:45.320Z,8.80
2018-11-10T05:24:15.544Z,8.74
2018-11-10T05:26:44.658Z,8.68
2018-11-10T05:29:13.548Z,8.67
2018-11-10T05:31:42.503Z,8.68
2018-11-10T05:34:12.490Z,8.64
2018-11-10T05:36:41.461Z,8.58
2018-11-10T05:39:10.752Z,8.59
2018-11-10T05:41:39.726Z,8.63
2018-11-10T05:44:08.634Z,8.60
2018-11-10T05:46:37.579Z,8.55
2018-11-10T05:49:07.498Z,8.56
2018-11-10T05:51:36.401Z,8.55
2018-11-10T05:54:05.822Z,8.54
2018-11-10T05:56:34.714Z,8.61
2018-11-10T05:59:03.683Z,8.61
2018-11-10T06:01:32.713Z,8.57
2018-11-10T06:04:01.631Z,8.57
2018-11-10T06:06:30.579Z,8.57
2018-11-10T06:08:59.501Z,8.61
2018-11-10T06:11:28.407Z,8.68
2018-11-10T06:13:57.347Z,8.74
2018-11-10T06:16:26.351Z,8.76
2018-11-10T06:18:55.329Z,8.72
2018-11-10T06:21:24.156Z,8.69
2018-11-10T06:23:53.065Z,8.75
2018-11-10T06:26:21.949Z,8.74
2018-11-10T06:28:50.879Z,8.75
2018-11-10T06:31:19.934Z,8.79
2018-11-10T06:33:48.825Z,8.82
2018-11-10T06:36:17.804Z,8.90
2018-11-10T06:38:46.694Z,8.98
2018-11-10T06:41:15.752Z,9.06
2018-11-10T06:43:44.622Z,9.19
2018-11-10T06:46:13.530Z,9.28
2018-11-10T06:48:42.417Z,9.42
2018-11-10T06:51:11.372Z,9.56
2018-11-10T06:53:40.288Z,9.54
2018-11-10T06:56:09.229Z,9.61
2018-11-10T06:58:38.172Z,9.52
2018-11-10T07:01:07.564Z,9.51
2018-11-10T07:03:36.680Z,9.59
2018-11-10T07:06:06.099Z,9.61
2018-11-10T07:08:35.045Z,9.62
2018-11-10T07:11:04.062Z,9.71
2018-11-10T07:13:32.996Z,9.71
2018-11-10T07:16:01.911Z,9.70
2018-11-10T07:18:30.896Z,9.67
2018-11-10T07:20:59.837Z,9.64
2018-11-10T07:23:28.796Z,9.67
2018-11-10T07:25:57.802Z,9.79
2018-11-10T07:28:28.271Z,10.04
2018-11-10T07:31:00.219Z,10.28
2018-11-10T07:33:29.249Z,10.32
2018-11-10T07:35:58.226Z,10.51
2018-11-10T07:38:27.146Z,10.76
2018-11-10T07:40:56.102Z,10.70
2018-11-10T07:43:25.017Z,10.58
2018-11-10T07:45:54.065Z,10.77
2018-11-10T07:48:22.983Z,10.90
2018-11-10T07:50:51.952Z,11.06
2018-11-10T07:53:20.889Z,11.14
2018-11-10T07:55:49.956Z,10.92
2018-11-10T07:58:18.826Z,10.91
2018-11-10T08:00:47.924Z,11.16
2018-11-10T08:03:16.884Z,11.66
2018-11-10T08:05:45.801Z,11.70
2018-11-10T08:08:14.720Z,11.63
2018-11-10T08:10:43.828Z,11.98
2018-11-10T08:13:12.740Z,12.17
2018-11-10T08:15:41.673Z,12.58
2018-11-10T08:18:10.769Z,12.56
2018-11-10T08:20:39.955Z,12.81
2018-11-10T08:23:09.059Z,12.81
2018-11-10T08:25:38.013Z,13.00
2018-11-10T08:28:07.004Z,12.54
2018-11-10T08:30:36.066Z,13.01
2018-11-10T08:33:05.532Z,12.99
2018-11-10T08:35:34.478Z,13.06
2018-11-10T08:38:03.499Z,13.49
2018-11-10T08:40:32.702Z,13.47
2018-11-10T08:43:01.633Z,13.07
2018-11-10T08:45:30.703Z,13.36
2018-11-10T08:47:59.635Z,13.47
2018-11-10T08:50:28.556Z,13.21
2018-11-10T08:52:57.551Z,12.78
2018-11-10T08:55:26.467Z,12.82
2018-11-10T08:57:55.725Z,13.16
2018-11-10T09:00:24.795Z,12.59
2018-11-10T09:02:53.736Z,13.20
2018-11-10T09:05:22.814Z,13.57
2018-11-10T09:07:51.825Z,13.42
2018-11-10T09:10:20.751Z,13.13
2018-11-10T09:12:49.680Z,13.11
2018-11-10T09:15:18.696Z,13.63
2018-11-10T09:17:47.638Z,13.36
2018-11-10T09:20:17.521Z,13.57
2018-11-10T09:22:46.528Z,13.61
2018-11-10T09:25:16.668Z,13.49
2018-11-10T09:27:45.654Z,13.47
2018-11-10T09:30:15.967Z,13.66
2018-11-10T09:32:44.904Z,13.40
2018-11-10T09:35:14.653Z,13.28
2018-11-10T09:37:43.580Z,13.46
2018-11-10T09:40:13.876Z,13.56
2018-11-10T09:42:43.203Z,13.63
2018-11-10T09:45:13.196Z,13.52
2018-11-10T09:47:42.223Z,13.91
2018-11-10T09:50:14.344Z,13.68
2018-11-10T09:52:43.872Z,14.24
2018-11-10T09:55:13.159Z,14.07
2018-11-10T09:57:42.067Z,13.52
2018-11-10T10:00:13.607Z,14.46
2018-11-10T10:02:43.291Z,14.45
2018-11-10T10:05:12.244Z,14.42
2018-11-10T10:07:41.903Z,14.72
2018-11-10T10:10:12.548Z,13.37
2018-11-10T10:12:42.080Z,13.17
2018-11-10T10:15:12.587Z,13.71
2018-11-10T10:17:42.601Z,13.42
2018-11-10T10:20:13.926Z,13.34
2018-11-10T10:22:43.344Z,13.94
2018-11-10T10:25:13.281Z,13.71
2018-11-10T10:27:42.749Z,13.12
2018-11-10T10:30:14.814Z,13.08
2018-11-10T10:32:44.696Z,14.17
2018-11-10T10:35:14.173Z,14.07
2018-11-10T10:37:43.680Z,14.24
2018-11-10T10:40:13.424Z,14.03
2018-11-10T10:42:42.786Z,14.48
2018-11-10T10:45:13.224Z,14.43
2018-11-10T10:47:42.427Z,13.97
2018-11-10T10:50:13.601Z,13.60
2018-11-10T10:52:42.632Z,14.14
2018-11-10T10:55:12.898Z,14.54
2018-11-10T10:57:42.491Z,14.79
2018-11-10T11:00:17.758Z,14.49
2018-11-10T11:02:52.308Z,14.05
2018-11-10T11:05:26.751Z,14.63
2018-11-10T11:07:55.864Z,14.39
2018-11-10T11:10:25.090Z,13.80
2018-11-10T11:12:53.988Z,13.78
2018-11-10T11:15:23.541Z,13.87
2018-11-10T11:17:52.230Z,14.83
2018-11-10T11:20:21.390Z,14.85
2018-11-10T11:22:50.371Z,14.72
2018-11-10T11:25:19.342Z,14.60
2018-11-10T11:27:48.424Z,14.23
2018-11-10T11:30:17.477Z,13.84
2018-11-10T11:32:46.500Z,13.79
2018-11-10T11:35:15.427Z,14.65
2018-11-10T11:37:44.369Z,14.58
2018-11-10T11:40:18.065Z,14.21
2018-11-10T11:42:51.675Z,13.92
2018-11-10T11:45:26.381Z,13.92
2018-11-10T11:48:00.030Z,13.96
2018-11-10T11:50:33.047Z,14.18
2018-11-10T11:53:06.857Z,14.01
2018-11-10T11:55:43.707Z,13.72
2018-11-10T11:58:17.711Z,14.31
2018-11-10T12:00:51.831Z,13.73
2018-11-10T12:03:27.721Z,14.07
2018-11-10T12:05:59.709Z,13.87
2018-11-10T12:08:33.082Z,13.33
2018-11-10T12:11:05.604Z,13.62
2018-11-10T12:13:39.936Z,13.59
2018-11-10T12:16:14.669Z,13.81
2018-11-10T12:18:49.650Z,13.54
2018-11-10T12:21:25.024Z,13.45
2018-11-10T12:23:57.260Z,14.04
2018-11-10T12:26:31.323Z,13.57
2018-11-10T12:29:03.967Z,13.60
2018-11-10T12:31:40.519Z,14.12
2018-11-10T12:34:17.426Z,14.19
2018-11-10T12:36:50.565Z,13.70
2018-11-10T12:39:25.505Z,13.38
2018-11-10T12:41:58.079Z,13.35
2018-11-10T12:44:31.136Z,13.09
2018-11-10T12:47:03.341Z,13.09
2018-11-10T12:49:38.918Z,13.41
2018-11-10T12:52:13.719Z,13.43
2018-11-10T12:54:47.194Z,13.36
2018-11-10T12:57:20.241Z,13.63
2018-11-10T12:59:54.034Z,13.47
2018-11-10T13:02:29.208Z,13.77
2018-11-10T13:05:02.631Z,13.67
2018-11-10T13:07:36.944Z,13.55
2018-11-10T13:10:11.942Z,13.45
2018-11-10T13:12:45.579Z,13.52
2018-11-10T13:15:19.293Z,13.28
2018-11-10T13:17:53.259Z,13.13
2018-11-10T13:20:27.439Z,12.69
2018-11-10T13:23:01.740Z,12.75
2018-11-10T13:25:35.331Z,12.80
2018-11-10T13:28:08.233Z,12.87
2018-11-10T13:30:41.672Z,12.64
2018-11-10T13:33:14.128Z,12.64
2018-11-10T13:35:46.934Z,12.81
2018-11-10T13:38:21.677Z,12.76
2018-11-10T13:40:53.531Z,12.78
2018-11-10T13:43:28.837Z,12.80
2018-11-10T13:46:00.320Z,12.58
2018-11-10T13:48:33.258Z,12.62
2018-11-10T13:51:07.266Z,12.56
2018-11-10T13:53:40.632Z,12.97
2018-11-10T13:56:12.273Z,12.74
2018-11-10T13:58:46.527Z,12.70
2018-11-10T14:01:20.412Z,12.53
2018-11-10T14:03:55.996Z,12.73
2018-11-10T14:06:32.165Z,12.65
2018-11-10T14:09:07.099Z,12.75
2018-11-10T14:11:42.036Z,12.76
2018-11-10T14:14:14.046Z,12.71
2018-11-10T14:16:48.527Z,12.57
2018-11-10T14:19:21.675Z,12.46
2018-11-10T14:21:55.934Z,12.10
2018-11-10T14:24:28.712Z,12.00
2018-11-10T14:27:00.200Z,11.92
2018-11-10T14:29:33.652Z,11.85
2018-11-10T14:32:07.612Z,11.95
2018-11-10T14:34:41.612Z,11.79
2018-11-10T14:37:15.622Z,11.83
2018-11-10T14:39:50.655Z,11.88
2018-11-10T14:42:25.292Z,11.92
2018-11-10T14:44:59.255Z,11.82
2018-11-10T14:47:33.209Z,11.75
2018-11-10T14:50:08.014Z,11.68
2018-11-10T14:52:43.846Z,11.61
2018-11-10T14:55:18.912Z,11.46
2018-11-10T14:57:54.658Z,11.40
2018-11-10T15:00:29.875Z,11.26
2018-11-10T15:03:04.540Z,11.27
2018-11-10T15:05:38.154Z,11.17
2018-11-10T15:08:12.727Z,11.17
2018-11-10T15:10:47.326Z,11.04
2018-11-10T15:13:22.829Z,10.96
2018-11-10T15:15:57.224Z,10.89
2018-11-10T15:18:30.973Z,10.83
2018-11-10T15:21:04.731Z,10.79
2018-11-10T15:23:36.909Z,10.72
2018-11-10T15:26:09.751Z,10.68
2018-11-10T15:28:43.770Z,10.65
2018-11-10T15:31:17.950Z,10.59
2018-11-10T15:33:52.861Z,10.57
2018-11-10T15:36:26.694Z,10.54
2018-11-10T15:38:59.576Z,10.54
2018-11-10T15:41:34.290Z,10.53
2018-11-10T15:44:08.618Z,10.50
2018-11-10T15:46:43.295Z,10.51
2018-11-10T15:49:17.591Z,10.44
2018-11-10T15:51:50.183Z,10.38
2018-11-10T15:54:22.786Z,10.29
2018-11-10T15:56:57.425Z,10.24
2018-11-10T15:59:31.192Z,10.24
2018-11-10T16:02:11.479Z,10.20
2018-11-10T16:04:46.207Z,10.21
2018-11-10T16:07:21.335Z,10.19
2018-11-10T16:09:56.050Z,10.13
2018-11-10T16:12:29.909Z,10.13
2018-11-10T16:15:01.703Z,10.10
2018-11-10T16:17:35.541Z,10.08
2018-11-10T16:20:10.719Z,10.04
2018-11-10T16:22:47.238Z,10.04
2018-11-10T16:25:20.230Z,9.99
2018-11-10T16:27:53.598Z,9.95
2018-11-10T16:30:28.318Z,9.95
2018-11-10T16:33:00.861Z,9.93
2018-11-10T16:35:33.797Z,9.94
2018-11-10T16:38:07.588Z,9.91
2018-11-10T16:40:43.204Z,9.83
2018-11-10T16:43:17.506Z,9.82
2018-11-10T16:45:46.644Z,9.76
2018-11-10T16:48:15.741Z,9.70
2018-11-10T16:50:44.692Z,9.68
2018-11-10T16:53:13.647Z,9.66
2018-11-10T16:55:42.656Z,9.65
2018-11-10T16:58:11.790Z,9.64
2018-11-10T17:00:42.476Z,9.63
2018-11-10T17:03:16.532Z,9.58
2018-11-10T17:05:51.389Z,9.56
2018-11-10T17:08:24.484Z,9.52
2018-11-10T17:10:57.196Z,9.53
2018-11-10T17:13:29.412Z,9.53
2018-11-10T17:16:01.658Z,9.58
2018-11-10T17:18:35.289Z,9.56
2018-11-10T17:21:08.593Z,9.50
2018-11-10T17:23:41.654Z,9.45
2018-11-10T17:26:14.571Z,9.46
2018-11-10T17:28:48.927Z,9.44
2018-11-10T17:31:22.204Z,9.43
2018-11-10T17:33:57.686Z,9.46
2018-11-10T17:36:31.703Z,9.50
2018-11-10T17:39:04.728Z,9.43
2018-11-10T17:41:39.437Z,9.42
2018-11-10T17:44:12.988Z,9.38
2018-11-10T17:46:46.836Z,9.42
2018-11-10T17:49:21.318Z,9.42
2018-11-10T17:51:55.706Z,9.44
2018-11-10T17:54:29.833Z,9.44
2018-11-10T17:57:01.103Z,9.37
2018-11-10T17:59:34.074Z,9.38
2018-11-10T18:02:08.475Z,9.46
2018-11-10T18:04:42.826Z,9.46
2018-11-10T18:07:16.964Z,9.43
2018-11-10T18:09:51.133Z,9.42
2018-11-10T18:12:25.697Z,9.38
2018-11-10T18:14:58.596Z,9.37
2018-11-10T18:17:33.005Z,9.41
2018-11-10T18:20:06.698Z,9.41
2018-11-10T18:22:39.381Z,9.40
2018-11-10T18:25:11.760Z,9.37
2018-11-10T18:27:45.957Z,9.40
2018-11-10T18:30:19.326Z,9.43
2018-11-10T18:32:54.233Z,9.43
2018-11-10T18:35:29.078Z,9.41
2018-11-10T18:38:02.035Z,9.42
2018-11-10T18:40:36.113Z,9.37
2018-11-10T18:43:09.579Z,9.40
2018-11-10T18:45:46.621Z,9.35
2018-11-10T18:48:20.356Z,9.35
2018-11-10T18:50:54.536Z,9.33
2018-11-10T18:53:28.550Z,9.31
2018-11-10T18:56:02.265Z,9.32
2018-11-10T18:58:36.676Z,9.34
2018-11-10T19:01:11.693Z,9.35
2018-11-10T19:03:46.059Z,9.31
2018-11-10T19:06:20.348Z,9.31
2018-11-10T19:08:54.874Z,9.27
2018-11-10T19:11:30.109Z,9.30
2018-11-10T19:14:02.521Z,9.33
2018-11-10T19:16:38.383Z,9.31
2018-11-10T19:19:13.865Z,9.29
2018-11-10T19:21:48.569Z,9.29
2018-11-10T19:24:22.423Z,9.26
2018-11-10T19:26:55.963Z,9.26
2018-11-10T19:29:30.400Z,9.25
2018-11-10T19:32:01.552Z,9.26
2018-11-10T19:34:35.744Z,9.22
2018-11-10T19:37:08.810Z,9.22
2018-11-10T19:39:42.831Z,9.21
2018-11-10T19:42:15.562Z,9.20
2018-11-10T19:44:50.181Z,9.20
2018-11-10T19:47:24.739Z,9.27
2018-11-10T19:49:59.404Z,9.25
2018-11-10T19:52:31.997Z,9.23
2018-11-10T19:55:04.280Z,9.22
2018-11-10T19:57:38.958Z,9.19
2018-11-10T20:00:15.668Z,9.23
2018-11-10T20:02:50.655Z,9.22
2018-11-10T20:05:25.292Z,9.19
2018-11-10T20:07:57.720Z,9.20
2018-11-10T20:10:31.145Z,9.20
2018-11-10T20:13:05.126Z,9.18
2018-11-10T20:15:39.952Z,9.20
2018-11-10T20:18:15.124Z,9.15
2018-11-10T20:20:50.815Z,9.16
2018-11-10T20:23:24.310Z,9.19
2018-11-10T20:25:58.065Z,9.16
2018-11-10T20:28:32.214Z,9.14
2018-11-10T20:31:06.074Z,9.07
2018-11-10T20:33:42.309Z,9.16
2018-11-10T20:36:16.384Z,9.11
2018-11-10T20:38:52.402Z,9.09
2018-11-10T20:41:25.926Z,9.08
2018-11-10T20:43:58.412Z,9.13
2018-11-10T20:46:33.081Z,9.09
2018-11-10T20:49:06.045Z,9.13
2018-11-10T20:51:40.309Z,9.07
2018-11-10T20:54:12.307Z,9.06
2018-11-10T20:56:45.094Z,9.06
2018-11-10T20:59:17.864Z,9.04
2018-11-10T21:01:51.743Z,9.06
2018-11-10T21:04:25.997Z,9.04
2018-11-10T21:06:59.837Z,9.03
2018-11-10T21:09:34.536Z,9.07
2018-11-10T21:12:09.721Z,9.03
2018-11-10T21:14:46.756Z,9.09
2018-11-10T21:17:20.517Z,9.07
2018-11-10T21:19:55.570Z,9.08
2018-11-10T21:22:30.659Z,9.07
2018-11-10T21:25:05.335Z,9.10
2018-11-10T21:27:41.074Z,9.05
2018-11-10T21:30:20.007Z,9.07
2018-11-10T21:32:54.875Z,9.11
2018-11-10T21:35:30.024Z,9.07
2018-11-10T21:38:03.816Z,9.07
2018-11-10T21:40:36.161Z,9.03
2018-11-10T21:43:09.325Z,8.97
2018-11-10T21:45:43.530Z,8.94
2018-11-10T21:48:21.555Z,8.95
2018-11-10T21:50:54.205Z,8.93
2018-11-10T21:53:28.330Z,8.92
2018-11-10T21:56:00.483Z,8.96
2018-11-10T21:58:35.426Z,8.93
2018-11-10T22:01:08.346Z,8.90
2018-11-10T22:03:41.440Z,8.93
2018-11-10T22:06:14.918Z,8.90
2018-11-10T22:08:50.114Z,8.87
2018-11-10T22:11:25.309Z,8.93
2018-11-10T22:13:59.516Z,8.88
2018-11-10T22:16:33.723Z,8.85
2018-11-10T22:19:07.426Z,8.82
2018-11-10T22:21:42.335Z,8.80
2018-11-10T22:24:13.771Z,8.78
2018-11-10T22:26:47.551Z,8.75
2018-11-10T22:29:22.190Z,8.76
2018-11-10T22:31:57.176Z,8.77
2018-11-10T22:34:31.405Z,8.80
2018-11-10T22:37:05.350Z,8.78
2018-11-10T22:39:38.167Z,8.75
2018-11-10T22:42:10.784Z,8.74
2018-11-10T22:44:45.165Z,8.77
2018-11-10T22:47:18.510Z,8.74
2018-11-10T22:49:52.112Z,8.74
2018-11-10T22:52:25.207Z,8.69
2018-11-10T22:54:58.502Z,8.63
2018-11-10T22:57:31.592Z,8.63
2018-11-10T23:00:04.867Z,8.63
2018-11-10T23:02:38.691Z,8.65
2018-11-10T23:05:13.695Z,8.63
2018-11-10T23:07:47.824Z,8.57
2018-11-10T23:10:22.514Z,8.61
2018-11-10T23:12:56.617Z,8.60
2018-11-10T23:15:30.119Z,8.56
2018-11-10T23:18:03.316Z,8.54
2018-11-10T23:20:37.628Z,8.53
2018-11-10T23:23:10.012Z,8.53
2018-11-10T23:25:45.023Z,8.57
2018-11-10T23:28:18.858Z,8.52
2018-11-10T23:30:53.406Z,8.57
2018-11-10T23:33:26.437Z,8.57
2018-11-10T23:35:59.796Z,8.52
2018-11-10T23:38:35.884Z,8.54
2018-11-10T23:41:11.012Z,8.53
2018-11-10T23:43:45.430Z,8.58
2018-11-10T23:46:19.345Z,8.55
2018-11-10T23:48:53.337Z,8.56
2018-11-10T23:51:27.451Z,8.52
2018-11-10T23:53:59.250Z,8.52
2018-11-10T23:56:33.360Z,8.48
2018-11-10T23:59:06.428Z,8.42
